createdAt,value
2022-08-21T00:02:27.258Z,6.63
2022-08-21T00:04:57.839Z,6.10
2022-08-21T00:07:27.660Z,5.73
2022-08-21T00:09:56.889Z,6.40
2022-08-21T00:12:26.885Z,7.80
2022-08-21T00:14:57.053Z,7.30
2022-08-21T00:17:26.520Z,7.77
2022-08-21T00:19:54.984Z,7.53
2022-08-21T00:22:23.448Z,7.90
2022-08-21T00:24:51.938Z,7.40
2022-08-21T00:27:20.552Z,7.23
2022-08-21T00:29:50.423Z,6.70
2022-08-21T00:32:23.320Z,7.90
2022-08-21T00:34:52.157Z,7.60
2022-08-21T00:37:21.146Z,7.03
2022-08-21T00:39:49.908Z,7.03
2022-08-21T00:42:20.960Z,7.27
2022-08-21T00:44:52.603Z,7.20
2022-08-21T00:47:21.945Z,7.97
2022-08-21T00:49:50.509Z,6.97
2022-08-21T00:52:24.805Z,7.33
2022-08-21T00:54:54.722Z,7.27
2022-08-21T00:57:33.611Z,7.33
2022-08-21T01:00:11.631Z,7.87
2022-08-21T01:02:40.477Z,7.10
2022-08-21T01:05:11.827Z,9.00
2022-08-21T01:07:40.867Z,6.83
2022-08-21T01:10:13.373Z,7.83
2022-08-21T01:12:53.692Z,8.20
2022-08-21T01:15:25.943Z,7.40
2022-08-21T01:17:55.591Z,6.93
2022-08-21T01:20:32.343Z,7.17
2022-08-21T01:23:04.287Z,7.30
2022-08-21T01:25:33.414Z,7.53
2022-08-21T01:28:16.070Z,7.60
2022-08-21T01:30:45.919Z,7.63
2022-08-21T01:33:14.613Z,6.83
2022-08-21T01:35:43.053Z,7.03
2022-08-21T01:38:13.183Z,7.40
2022-08-21T01:40:41.846Z,7.30
2022-08-21T01:43:10.320Z,7.13
2022-08-21T01:45:38.888Z,6.90
2022-08-21T01:48:07.424Z,7.03
2022-08-21T01:50:36.817Z,7.60
2022-08-21T01:53:05.849Z,7.10
2022-08-21T01:55:35.991Z,6.70
2022-08-21T01:58:04.558Z,7.50
2022-08-21T02:00:33.297Z,7.30
2022-08-21T02:03:01.776Z,7.40
2022-08-21T02:05:30.259Z,7.60
2022-08-21T02:07:59.134Z,7.13
2022-08-21T02:10:32.275Z,7.23
2022-08-21T02:13:03.047Z,7.00
2022-08-21T02:15:32.833Z,7.20
2022-08-21T02:18:04.432Z,7.37
2022-08-21T02:20:36.283Z,7.90
2022-08-21T02:23:07.145Z,7.93
2022-08-21T02:25:36.084Z,7.80
2022-08-21T02:28:10.084Z,7.30
2022-08-21T02:30:44.775Z,7.93
2022-08-21T02:33:14.253Z,7.50
2022-08-21T02:35:44.491Z,8.10
2022-08-21T02:38:17.625Z,7.50
2022-08-21T02:40:51.040Z,7.10
2022-08-21T02:43:22.905Z,7.37
2022-08-21T02:45:52.937Z,8.33
2022-08-21T02:48:24.217Z,7.43
2022-08-21T02:50:57.928Z,7.20
2022-08-21T02:53:27.372Z,7.53
2022-08-21T02:55:59.331Z,7.17
2022-08-21T02:58:36.004Z,7.33
2022-08-21T03:01:05.393Z,7.80
2022-08-21T03:03:36.169Z,7.17
2022-08-21T03:06:06.334Z,7.60
2022-08-21T03:08:36.505Z,7.77
2022-08-21T03:11:06.032Z,6.90
2022-08-21T03:13:37.466Z,6.93
2022-08-21T03:16:09.813Z,6.83
2022-08-21T03:18:39.914Z,7.63
2022-08-21T03:21:08.870Z,7.53
2022-08-21T03:23:37.491Z,8.33
2022-08-21T03:26:06.473Z,7.00
2022-08-21T03:28:37.897Z,6.90
2022-08-21T03:31:06.842Z,7.70
2022-08-21T03:33:35.337Z,6.90
2022-08-21T03:36:09.461Z,6.60
2022-08-21T03:38:39.378Z,7.13
2022-08-21T03:41:08.716Z,7.50
2022-08-21T03:43:39.503Z,7.23
2022-08-21T03:46:09.283Z,6.97
2022-08-21T03:48:39.257Z,6.73
2022-08-21T03:51:08.667Z,7.57
2022-08-21T03:53:37.382Z,7.20
2022-08-21T03:56:07.182Z,7.00
2022-08-21T03:58:36.991Z,6.80
2022-08-21T04:01:08.169Z,7.23
2022-08-21T04:03:38.254Z,7.00
2022-08-21T04:06:08.361Z,6.23
2022-08-21T04:08:37.326Z,6.57
2022-08-21T04:11:06.769Z,6.73
2022-08-21T04:13:35.179Z,7.30
2022-08-21T04:16:15.126Z,7.30
2022-08-21T04:18:44.432Z,7.60
2022-08-21T04:21:14.216Z,6.87
2022-08-21T04:23:42.714Z,7.77
2022-08-21T04:26:11.441Z,7.47
2022-08-21T04:28:39.952Z,8.47
2022-08-21T04:31:08.758Z,6.73
2022-08-21T04:33:38.546Z,7.70
2022-08-21T04:36:08.865Z,6.90
2022-08-21T04:38:37.764Z,8.10
2022-08-21T04:41:07.342Z,7.60
2022-08-21T04:43:36.102Z,8.40
2022-08-21T04:46:04.661Z,6.83
2022-08-21T04:48:33.865Z,8.00
2022-08-21T04:51:09.816Z,7.73
2022-08-21T04:53:41.818Z,7.40
2022-08-21T04:56:16.644Z,6.93
2022-08-21T04:58:45.507Z,7.50
2022-08-21T05:01:19.887Z,7.20
2022-08-21T05:03:51.794Z,8.70
2022-08-21T05:06:22.363Z,8.40
2022-08-21T05:09:01.547Z,9.37
2022-08-21T05:11:32.187Z,7.37
2022-08-21T05:14:00.771Z,8.10
2022-08-21T05:16:37.412Z,7.80
2022-08-21T05:19:06.847Z,8.43
2022-08-21T05:21:38.006Z,7.50
2022-08-21T05:24:06.651Z,8.60
2022-08-21T05:26:45.298Z,7.77
2022-08-21T05:29:16.274Z,8.70
2022-08-21T05:31:46.040Z,8.17
2022-08-21T05:34:16.187Z,7.43
2022-08-21T05:36:47.004Z,8.80
2022-08-21T05:39:15.966Z,9.00
2022-08-21T05:41:44.603Z,9.97
2022-08-21T05:44:13.097Z,10.83
2022-08-21T05:46:41.554Z,9.83
2022-08-21T05:49:10.226Z,9.23
2022-08-21T05:51:39.164Z,9.70
2022-08-21T05:54:09.037Z,9.93
2022-08-21T05:56:37.568Z,10.00
2022-08-21T05:59:08.607Z,10.07
2022-08-21T06:01:37.661Z,9.97
2022-08-21T06:04:06.730Z,9.47
2022-08-21T06:06:35.959Z,10.80
2022-08-21T06:09:05.646Z,9.67
2022-08-21T06:11:36.351Z,9.97
2022-08-21T06:14:07.303Z,10.47
2022-08-21T06:16:35.803Z,10.67
2022-08-21T06:19:04.258Z,11.00
2022-08-21T06:21:32.804Z,10.53
2022-08-21T06:24:01.257Z,9.83
2022-08-21T06:26:30.227Z,10.80
2022-08-21T06:29:00.401Z,12.20
2022-08-21T06:31:30.786Z,9.70
2022-08-21T06:33:59.540Z,10.10
2022-08-21T06:36:28.185Z,9.27
2022-08-21T06:38:57.173Z,9.43
2022-08-21T06:41:27.021Z,8.70
2022-08-21T06:43:56.765Z,11.47
2022-08-21T06:46:28.896Z,8.80
2022-08-21T06:48:58.787Z,8.77
2022-08-21T06:51:27.651Z,9.40
2022-08-21T06:53:56.721Z,9.17
2022-08-21T06:56:27.946Z,9.90
2022-08-21T06:58:56.371Z,9.80
2022-08-21T07:01:28.944Z,9.13
2022-08-21T07:03:57.423Z,10.10
2022-08-21T07:06:25.909Z,9.80
2022-08-21T07:08:54.316Z,9.57
2022-08-21T07:11:27.968Z,9.40
2022-08-21T07:13:57.510Z,9.57
2022-08-21T07:16:27.638Z,10.33
2022-08-21T07:18:56.167Z,9.60
2022-08-21T07:21:26.212Z,8.97
2022-08-21T07:23:55.198Z,9.87
2022-08-21T07:26:25.292Z,9.23
2022-08-21T07:28:53.927Z,9.53
2022-08-21T07:31:25.351Z,9.43
2022-08-21T07:33:55.815Z,9.17
2022-08-21T07:36:24.877Z,9.10
2022-08-21T07:38:53.295Z,8.60
2022-08-21T07:41:25.522Z,8.13
2022-08-21T07:43:54.426Z,10.80
2022-08-21T07:46:22.948Z,8.33
2022-08-21T07:48:51.556Z,8.87
2022-08-21T07:51:28.323Z,8.47
2022-08-21T07:53:59.753Z,10.10
2022-08-21T07:56:29.064Z,9.50
2022-08-21T07:58:58.601Z,8.87
2022-08-21T08:01:27.539Z,9.40
2022-08-21T08:03:56.057Z,9.63
2022-08-21T08:06:27.021Z,8.33
2022-08-21T08:08:55.502Z,8.07
2022-08-21T08:11:23.985Z,8.93
2022-08-21T08:13:54.605Z,8.70
2022-08-21T08:16:23.187Z,8.90
2022-08-21T08:18:52.463Z,9.70
2022-08-21T08:21:21.945Z,10.57
2022-08-21T08:23:52.032Z,9.13
2022-08-21T08:26:20.561Z,9.40
2022-08-21T08:28:49.069Z,8.40
2022-08-21T08:31:17.900Z,9.10
2022-08-21T08:33:46.356Z,8.33
2022-08-21T08:36:19.980Z,8.53
2022-08-21T08:38:49.981Z,8.43
2022-08-21T08:41:23.901Z,9.43
2022-08-21T08:44:05.001Z,10.37
2022-08-21T08:46:40.838Z,9.10
2022-08-21T08:49:22.458Z,10.67
2022-08-21T08:52:00.480Z,8.40
2022-08-21T08:54:34.959Z,9.77
2022-08-21T08:57:12.105Z,8.80
2022-08-21T08:59:45.959Z,9.50
2022-08-21T09:02:16.871Z,8.37
2022-08-21T09:04:48.541Z,8.30
2022-08-21T09:07:27.954Z,6.67
2022-08-21T09:10:14.855Z,7.17
2022-08-21T09:12:56.307Z,7.07
2022-08-21T09:15:34.351Z,7.00
2022-08-21T09:18:22.643Z,7.07
2022-08-21T09:21:05.389Z,6.13
2022-08-21T09:23:46.317Z,6.00
2022-08-21T09:26:18.549Z,5.23
2022-08-21T09:28:54.763Z,4.60
2022-08-21T09:31:30.590Z,5.47
2022-08-21T09:34:04.059Z,5.80
2022-08-21T09:36:41.614Z,5.43
2022-08-21T09:39:12.112Z,5.60
2022-08-21T09:41:41.731Z,5.20
2022-08-21T09:44:11.597Z,5.17
2022-08-21T09:46:40.076Z,5.60
2022-08-21T09:49:10.428Z,4.43
2022-08-21T09:51:54.807Z,4.80
2022-08-21T09:54:30.812Z,4.70
2022-08-21T09:57:24.839Z,4.50
2022-08-21T09:59:55.353Z,4.53
2022-08-21T10:02:30.350Z,4.57
2022-08-21T10:05:02.044Z,5.00
2022-08-21T10:07:34.573Z,4.63
2022-08-21T10:10:07.101Z,4.97
2022-08-21T10:12:47.299Z,5.37
2022-08-21T10:15:25.359Z,4.90
2022-08-21T10:18:04.126Z,4.83
2022-08-21T10:20:41.436Z,4.67
2022-08-21T10:23:28.652Z,4.50
2022-08-21T10:26:13.192Z,5.17
2022-08-21T10:28:54.031Z,4.27
2022-08-21T10:31:35.091Z,4.07
2022-08-21T10:34:22.043Z,4.20
2022-08-21T10:37:08.326Z,4.87
2022-08-21T10:39:47.656Z,3.90
2022-08-21T10:42:37.579Z,4.53
2022-08-21T10:45:28.581Z,4.40
2022-08-21T10:48:06.503Z,4.57
2022-08-21T10:50:42.966Z,4.33
2022-08-21T10:53:37.864Z,4.37
2022-08-21T10:56:18.939Z,4.70
2022-08-21T10:59:23.876Z,5.80
2022-08-21T11:01:59.651Z,4.67
2022-08-21T11:04:47.022Z,4.60
2022-08-21T11:07:24.976Z,4.40
2022-08-21T11:10:05.821Z,4.10
2022-08-21T11:12:43.512Z,4.00
2022-08-21T11:15:30.039Z,3.90
2022-08-21T11:18:06.552Z,4.10
2022-08-21T11:20:45.806Z,4.60
2022-08-21T11:23:21.376Z,4.23
2022-08-21T11:25:55.748Z,3.80
2022-08-21T11:28:29.436Z,3.70
2022-08-21T11:31:13.452Z,4.30
2022-08-21T11:34:02.711Z,4.20
2022-08-21T11:36:44.063Z,4.03
2022-08-21T11:39:28.144Z,4.20
2022-08-21T11:42:08.978Z,3.50
2022-08-21T11:44:51.600Z,3.60
2022-08-21T11:47:34.534Z,4.20
2022-08-21T11:50:34.924Z,3.20
2022-08-21T11:53:13.386Z,3.70
2022-08-21T11:55:46.730Z,4.27
2022-08-21T11:58:23.541Z,4.13
2022-08-21T12:00:58.310Z,4.00
2022-08-21T12:03:31.603Z,4.53
2022-08-21T12:06:03.249Z,4.10
2022-08-21T12:08:36.215Z,4.13
2022-08-21T12:11:09.047Z,3.17
2022-08-21T12:13:42.648Z,4.40
2022-08-21T12:16:14.971Z,3.70
2022-08-21T12:18:44.805Z,3.77
2022-08-21T12:21:26.679Z,3.50
2022-08-21T12:24:18.781Z,3.97
2022-08-21T12:26:54.595Z,3.80
2022-08-21T12:29:29.384Z,3.77
2022-08-21T12:32:03.586Z,3.40
2022-08-21T12:34:39.699Z,3.50
2022-08-21T12:37:19.295Z,3.20
2022-08-21T12:39:53.012Z,3.60
2022-08-21T12:42:25.774Z,4.10
2022-08-21T12:45:00.303Z,3.77
2022-08-21T12:47:34.406Z,3.70
2022-08-21T12:50:08.242Z,3.73
2022-08-21T12:52:42.505Z,3.40
2022-08-21T12:55:16.701Z,3.30
2022-08-21T12:57:45.166Z,3.50
2022-08-21T13:00:17.051Z,3.53
2022-08-21T13:02:50.858Z,4.30
2022-08-21T13:05:31.440Z,4.00
2022-08-21T13:08:00.247Z,2.97
2022-08-21T13:10:33.379Z,3.50
2022-08-21T13:13:12.811Z,3.70
2022-08-21T13:15:47.360Z,3.43
2022-08-21T13:18:25.842Z,3.27
2022-08-21T13:21:05.622Z,3.30
2022-08-21T13:23:34.293Z,3.43
2022-08-21T13:26:18.526Z,3.30
2022-08-21T13:28:48.588Z,3.13
2022-08-21T13:31:26.964Z,3.27
2022-08-21T13:33:57.234Z,3.20
2022-08-21T13:36:32.018Z,3.30
2022-08-21T13:39:00.598Z,4.03
2022-08-21T13:41:34.985Z,3.10
2022-08-21T13:44:06.814Z,3.20
2022-08-21T13:46:38.919Z,4.17
2022-08-21T13:49:08.826Z,3.23
2022-08-21T13:51:38.246Z,3.07
2022-08-21T13:54:23.518Z,3.27
2022-08-21T13:56:53.437Z,3.23
2022-08-21T13:59:32.419Z,2.70
2022-08-21T14:02:05.313Z,2.80
2022-08-21T14:04:38.555Z,3.33
2022-08-21T14:07:21.284Z,3.47
2022-08-21T14:09:50.354Z,3.70
2022-08-21T14:12:28.494Z,3.70
2022-08-21T14:14:59.469Z,3.17
2022-08-21T14:17:36.296Z,3.10
2022-08-21T14:20:10.133Z,3.60
2022-08-21T14:22:42.166Z,3.10
2022-08-21T14:25:17.162Z,3.23
2022-08-21T14:27:54.940Z,3.60
2022-08-21T14:30:30.543Z,3.70
2022-08-21T14:32:59.397Z,3.97
2022-08-21T14:35:28.563Z,3.27
2022-08-21T14:37:58.729Z,3.07
2022-08-21T14:40:28.027Z,3.70
2022-08-21T14:42:59.117Z,4.00
2022-08-21T14:45:31.206Z,3.10
2022-08-21T14:48:00.919Z,3.47
2022-08-21T14:50:29.495Z,3.60
2022-08-21T14:52:57.953Z,3.87
2022-08-21T14:55:26.543Z,2.97
2022-08-21T14:57:57.680Z,3.70
2022-08-21T15:00:35.922Z,3.00
2022-08-21T15:03:05.211Z,3.60
2022-08-21T15:05:34.330Z,2.70
2022-08-21T15:08:03.320Z,3.03
2022-08-21T15:10:32.906Z,2.97
2022-08-21T15:13:03.829Z,2.90
2022-08-21T15:15:36.770Z,3.37
2022-08-21T15:18:05.366Z,3.00
2022-08-21T15:20:33.874Z,2.73
2022-08-21T15:23:02.394Z,3.47
2022-08-21T15:25:31.162Z,3.33
2022-08-21T15:28:00.525Z,2.80
2022-08-21T15:30:32.427Z,2.97
2022-08-21T15:33:00.894Z,3.23
2022-08-21T15:35:29.625Z,2.80
2022-08-21T15:37:58.584Z,2.83
2022-08-21T15:40:27.840Z,2.73
2022-08-21T15:43:02.964Z,3.13
2022-08-21T15:45:34.209Z,2.87
2022-08-21T15:48:03.011Z,3.00
2022-08-21T15:50:33.008Z,3.73
2022-08-21T15:53:01.541Z,2.40
2022-08-21T15:55:30.029Z,3.10
2022-08-21T15:58:00.057Z,3.13
2022-08-21T16:00:36.423Z,2.90
2022-08-21T16:03:08.455Z,3.27
2022-08-21T16:05:36.904Z,3.17
2022-08-21T16:08:05.935Z,2.97
2022-08-21T16:10:34.504Z,2.90
2022-08-21T16:13:06.882Z,2.97
2022-08-21T16:15:36.880Z,3.00
2022-08-21T16:18:06.583Z,2.97
2022-08-21T16:20:35.177Z,2.57
2022-08-21T16:23:03.783Z,2.93
2022-08-21T16:25:35.100Z,3.00
2022-08-21T16:28:04.791Z,3.20
2022-08-21T16:30:34.475Z,2.70
2022-08-21T16:33:06.969Z,2.93
2022-08-21T16:35:35.553Z,3.07
2022-08-21T16:38:04.264Z,3.40
2022-08-21T16:40:32.777Z,3.10
2022-08-21T16:43:01.378Z,2.60
2022-08-21T16:45:33.163Z,3.27
2022-08-21T16:48:06.547Z,2.63
2022-08-21T16:50:35.135Z,3.20
2022-08-21T16:53:03.663Z,2.80
2022-08-21T16:55:33.244Z,2.83
2022-08-21T16:58:02.985Z,3.00
2022-08-21T17:00:32.334Z,3.67
2022-08-21T17:03:01.094Z,4.20
2022-08-21T17:05:31.139Z,3.67
2022-08-21T17:07:59.630Z,4.33
2022-08-21T17:10:28.130Z,4.57
2022-08-21T17:12:59.296Z,4.53
2022-08-21T17:15:33.918Z,3.67
2022-08-21T17:18:03.118Z,3.20
2022-08-21T17:20:33.423Z,5.40
2022-08-21T17:23:02.251Z,5.40
2022-08-21T17:25:31.011Z,4.70
2022-08-21T17:27:59.949Z,4.90
2022-08-21T17:30:28.610Z,3.33
2022-08-21T17:32:59.790Z,4.00
2022-08-21T17:35:28.389Z,4.23
2022-08-21T17:37:58.310Z,3.37
2022-08-21T17:40:26.887Z,4.03
2022-08-21T17:42:55.534Z,4.13
2022-08-21T17:45:24.332Z,3.27
2022-08-21T17:47:52.916Z,5.23
2022-08-21T17:50:22.563Z,3.50
2022-08-21T17:52:51.507Z,3.60
2022-08-21T17:55:22.041Z,4.47
2022-08-21T17:57:53.228Z,3.90
2022-08-21T18:00:23.052Z,3.83
2022-08-21T18:03:01.778Z,4.40
2022-08-21T18:05:31.181Z,3.90
2022-08-21T18:08:00.265Z,4.67
2022-08-21T18:10:30.794Z,4.30
2022-08-21T18:13:00.442Z,4.27
2022-08-21T18:15:30.104Z,3.67
2022-08-21T18:17:58.933Z,3.20
2022-08-21T18:20:28.073Z,4.83
2022-08-21T18:22:56.735Z,3.30
2022-08-21T18:25:25.476Z,4.30
2022-08-21T18:27:55.950Z,3.57
2022-08-21T18:30:25.955Z,4.10
2022-08-21T18:32:56.661Z,3.87
2022-08-21T18:35:26.119Z,4.23
2022-08-21T18:37:54.548Z,3.50
2022-08-21T18:40:23.395Z,3.60
2022-08-21T18:42:55.806Z,4.33
2022-08-21T18:45:26.521Z,3.50
2022-08-21T18:47:58.505Z,3.57
2022-08-21T18:50:29.860Z,4.00
2022-08-21T18:52:58.481Z,4.00
2022-08-21T18:55:28.018Z,3.77
2022-08-21T18:57:58.173Z,4.40
2022-08-21T19:00:33.225Z,3.63
2022-08-21T19:03:05.949Z,4.33
2022-08-21T19:05:51.625Z,3.70
2022-08-21T19:08:23.515Z,3.57
2022-08-21T19:10:57.047Z,3.50
2022-08-21T19:13:28.414Z,3.63
2022-08-21T19:16:00.131Z,3.87
2022-08-21T19:18:29.549Z,3.30
2022-08-21T19:20:58.415Z,4.17
2022-08-21T19:23:29.540Z,4.93
2022-08-21T19:26:02.756Z,4.57
2022-08-21T19:28:36.313Z,3.37
2022-08-21T19:31:12.485Z,4.43
2022-08-21T19:33:57.691Z,4.50
2022-08-21T19:36:30.060Z,3.90
2022-08-21T19:38:58.924Z,3.63
2022-08-21T19:41:31.872Z,4.90
2022-08-21T19:44:05.799Z,4.27
2022-08-21T19:46:38.887Z,4.17
2022-08-21T19:49:15.993Z,3.40
2022-08-21T19:51:44.874Z,4.30
2022-08-21T19:54:17.897Z,4.60
2022-08-21T19:56:47.139Z,4.70
2022-08-21T19:59:18.960Z,4.63
2022-08-21T20:01:55.514Z,3.37
2022-08-21T20:04:25.045Z,3.97
2022-08-21T20:06:56.545Z,3.90
2022-08-21T20:09:25.371Z,3.13
2022-08-21T20:11:58.546Z,3.40
2022-08-21T20:14:31.220Z,2.90
2022-08-21T20:17:12.476Z,3.17
2022-08-21T20:19:45.742Z,3.17
2022-08-21T20:22:15.096Z,2.80
2022-08-21T20:24:43.959Z,2.90
2022-08-21T20:27:21.022Z,2.97
2022-08-21T20:29:50.297Z,2.17
2022-08-21T20:32:22.233Z,2.30
2022-08-21T20:34:51.781Z,3.57
2022-08-21T20:40:13.384Z,2.10
2022-08-21T20:42:47.278Z,2.47
2022-08-21T20:45:22.292Z,2.20
2022-08-21T20:47:55.434Z,2.50
2022-08-21T20:50:29.158Z,2.47
2022-08-21T20:53:07.796Z,2.27
2022-08-21T20:55:43.365Z,2.00
2022-08-21T20:58:22.032Z,2.43
2022-08-21T21:01:01.657Z,2.30
2022-08-21T21:03:37.618Z,2.53
2022-08-21T21:06:15.742Z,1.83
2022-08-21T21:08:53.178Z,2.10
2022-08-21T21:11:26.398Z,2.37
2022-08-21T21:13:58.662Z,1.70
2022-08-21T21:16:33.417Z,2.10
2022-08-21T21:19:06.785Z,1.70
2022-08-21T21:21:51.455Z,1.90
2022-08-21T21:27:22.229Z,1.87
2022-08-21T21:29:58.098Z,2.53
2022-08-21T21:32:29.731Z,2.40
2022-08-21T21:34:59.758Z,2.03
2022-08-21T21:37:38.593Z,2.17
2022-08-21T21:40:27.381Z,2.30
2022-08-21T21:43:09.425Z,2.30
2022-08-21T21:45:57.921Z,2.80
2022-08-21T21:49:00.027Z,2.30
2022-08-21T21:51:51.658Z,1.87
2022-08-21T21:54:51.842Z,2.23
2022-08-21T21:57:37.795Z,1.90
2022-08-21T22:00:13.975Z,2.03
2022-08-21T22:02:54.923Z,2.10
2022-08-21T22:05:43.079Z,2.03
2022-08-21T22:08:22.969Z,2.43
2022-08-21T22:11:09.028Z,2.20
2022-08-21T22:14:01.112Z,2.03
2022-08-21T22:16:29.783Z,2.20
2022-08-21T22:19:03.463Z,2.00
2022-08-21T22:21:38.617Z,1.90
2022-08-21T22:24:16.003Z,2.00
2022-08-21T22:26:50.406Z,2.00
2022-08-21T22:29:24.627Z,1.93
2022-08-21T22:32:07.867Z,2.20
2022-08-21T22:34:36.260Z,2.07
2022-08-21T22:37:09.996Z,2.10
2022-08-21T22:39:47.002Z,1.97
2022-08-21T22:42:24.904Z,2.50
2022-08-21T22:44:57.123Z,2.10
2022-08-21T22:47:33.555Z,2.20
2022-08-21T22:50:05.614Z,1.90
2022-08-21T22:52:36.983Z,1.70
2022-08-21T22:55:26.025Z,1.90
2022-08-21T22:58:11.516Z,1.90
2022-08-21T23:00:51.334Z,2.07
2022-08-21T23:03:31.629Z,2.50
2022-08-21T23:06:12.745Z,1.93
2022-08-21T23:08:44.159Z,2.50
2022-08-21T23:11:20.862Z,1.70
2022-08-21T23:13:54.460Z,1.60
2022-08-21T23:16:47.265Z,2.07
2022-08-21T23:19:38.063Z,1.90
2022-08-21T23:22:37.557Z,1.97
2022-08-21T23:25:33.210Z,2.13
2022-08-21T23:28:13.883Z,2.63
2022-08-21T23:30:53.423Z,1.67
2022-08-21T23:33:40.649Z,2.10
2022-08-21T23:36:40.776Z,2.00
2022-08-21T23:39:27.818Z,1.70
2022-08-21T23:42:20.605Z,1.77
2022-08-21T23:45:04.686Z,1.83
2022-08-21T23:47:51.299Z,1.90
2022-08-21T23:50:28.130Z,1.50
2022-08-21T23:53:14.350Z,1.97
2022-08-21T23:56:01.403Z,1.70
2022-08-21T23:58:42.990Z,2.07
